createdAt,value
2018-12-02T00:01:55.564Z,75.88
2018-12-02T00:05:59.059Z,75.80
2018-12-02T00:10:04.326Z,75.89
2018-12-02T00:14:07.795Z,76.07
2018-12-02T00:18:12.806Z,75.77
2018-12-02T00:22:16.331Z,75.83
2018-12-02T00:26:19.837Z,75.60
2018-12-02T00:30:25.244Z,76.12
2018-12-02T00:34:28.691Z,76.12
2018-12-02T00:38:32.164Z,76.00
2018-12-02T00:42:35.660Z,75.96
2018-12-02T00:46:39.083Z,76.09
2018-12-02T00:50:42.568Z,76.17
2018-12-02T00:54:46.029Z,76.49
2018-12-02T00:58:49.530Z,76.11
2018-12-02T01:02:53.076Z,75.77
2018-12-02T01:06:56.601Z,76.09
2018-12-02T01:11:00.100Z,76.40
2018-12-02T01:15:04.331Z,76.02
2018-12-02T01:19:07.782Z,76.32
2018-12-02T01:23:11.249Z,75.62
2018-12-02T01:27:14.731Z,76.48
2018-12-02T01:31:18.194Z,76.04
2018-12-02T01:35:21.643Z,76.49
2018-12-02T01:39:25.159Z,75.90
2018-12-02T01:43:28.683Z,76.71
2018-12-02T01:47:32.135Z,76.36
2018-12-02T01:51:35.673Z,76.75
2018-12-02T01:55:39.181Z,77.00
2018-12-02T01:59:42.747Z,77.08
2018-12-02T02:03:46.263Z,77.03
2018-12-02T02:07:49.767Z,76.60
2018-12-02T02:11:53.272Z,76.84
2018-12-02T02:15:57.167Z,76.39
2018-12-02T02:20:00.681Z,76.45
2018-12-02T02:24:05.003Z,76.40
2018-12-02T02:28:08.487Z,76.96
2018-12-02T02:32:11.981Z,76.31
2018-12-02T02:36:15.527Z,76.71
2018-12-02T02:40:21.156Z,76.90
2018-12-02T02:44:24.599Z,76.79
2018-12-02T02:48:28.128Z,76.16
2018-12-02T02:52:31.664Z,76.15
2018-12-02T02:56:35.221Z,75.92
2018-12-02T03:00:38.721Z,76.60
2018-12-02T03:04:42.191Z,76.26
2018-12-02T03:08:45.737Z,76.33
2018-12-02T03:12:51.292Z,76.32
2018-12-02T03:16:54.803Z,76.03
2018-12-02T03:20:58.270Z,76.27
2018-12-02T03:25:01.753Z,75.71
2018-12-02T03:29:05.523Z,76.50
2018-12-02T03:33:08.971Z,76.39
2018-12-02T03:37:12.431Z,76.38
2018-12-02T03:41:15.908Z,76.37
2018-12-02T03:45:20.341Z,76.30
2018-12-02T03:49:23.884Z,75.95
2018-12-02T03:53:27.324Z,76.38
2018-12-02T03:57:30.835Z,75.66
2018-12-02T04:01:34.356Z,76.41
2018-12-02T04:05:37.820Z,75.94
2018-12-02T04:09:41.406Z,76.12
2018-12-02T04:13:44.912Z,76.22
2018-12-02T04:17:48.377Z,75.93
2018-12-02T04:21:52.154Z,75.56
2018-12-02T04:25:55.567Z,76.18
2018-12-02T04:29:59.065Z,75.59
2018-12-02T04:34:02.601Z,76.06
2018-12-02T04:38:06.159Z,75.48
2018-12-02T04:42:09.661Z,75.96
2018-12-02T04:46:13.211Z,75.85
2018-12-02T04:50:21.493Z,76.06
2018-12-02T04:54:24.986Z,76.25
2018-12-02T04:58:28.500Z,76.39
2018-12-02T05:02:31.961Z,76.65
2018-12-02T05:06:35.490Z,76.29
2018-12-02T05:10:39.062Z,76.55
2018-12-02T05:14:42.553Z,76.06
2018-12-02T05:18:46.061Z,76.63
2018-12-02T05:22:49.616Z,76.44
2018-12-02T05:26:53.110Z,76.75
2018-12-02T05:30:56.668Z,76.79
2018-12-02T05:35:00.143Z,76.62
2018-12-02T05:39:04.642Z,76.80
2018-12-02T05:43:08.116Z,76.89
2018-12-02T05:47:11.567Z,76.19
2018-12-02T05:51:15.440Z,76.23
2018-12-02T05:55:22.534Z,76.22
2018-12-02T05:59:26.056Z,76.40
2018-12-02T06:03:29.518Z,76.92
2018-12-02T06:07:33.306Z,76.58
2018-12-02T06:11:37.017Z,76.44
2018-12-02T06:15:40.867Z,76.98
2018-12-02T06:19:44.320Z,76.28
2018-12-02T06:23:47.818Z,76.66
2018-12-02T06:27:51.390Z,77.05
2018-12-02T06:31:54.945Z,76.64
2018-12-02T06:35:58.459Z,76.46
2018-12-02T06:40:01.922Z,76.25
2018-12-02T06:44:05.652Z,76.25
2018-12-02T06:48:09.144Z,76.27
2018-12-02T06:52:12.607Z,76.93
2018-12-02T06:56:21.975Z,76.50
2018-12-02T07:00:43.064Z,76.28
2018-12-02T07:04:46.572Z,76.36
2018-12-02T07:08:50.011Z,76.19
2018-12-02T07:12:53.581Z,76.08
2018-12-02T07:16:57.029Z,76.28
2018-12-02T07:21:05.250Z,76.27
2018-12-02T07:25:14.829Z,76.70
2018-12-02T07:29:18.279Z,76.02
2018-12-02T07:33:21.780Z,76.19
2018-12-02T07:37:25.222Z,75.68
2018-12-02T07:41:28.722Z,75.79
2018-12-02T07:45:32.265Z,75.28
2018-12-02T07:49:35.825Z,75.22
2018-12-02T07:53:39.436Z,75.34
2018-12-02T07:57:42.968Z,75.68
2018-12-02T08:01:46.450Z,75.70
2018-12-02T08:05:49.986Z,75.80
2018-12-02T08:09:53.487Z,75.78
2018-12-02T08:13:57.022Z,75.11
2018-12-02T08:18:00.487Z,75.79
2018-12-02T08:22:04.396Z,76.32
2018-12-02T08:26:07.955Z,75.27
2018-12-02T08:30:13.907Z,75.93
2018-12-02T08:34:17.435Z,75.71
2018-12-02T08:38:20.963Z,76.00
2018-12-02T08:42:24.512Z,75.65
2018-12-02T08:46:28.063Z,75.53
2018-12-02T08:50:31.592Z,75.48
2018-12-02T08:54:35.052Z,76.21
2018-12-02T08:58:38.539Z,75.65
2018-12-02T09:02:42.460Z,76.31
2018-12-02T09:06:46.002Z,75.69
2018-12-02T09:10:49.490Z,76.24
2018-12-02T09:14:53.000Z,76.01
2018-12-02T09:18:56.459Z,76.68
2018-12-02T09:22:59.972Z,76.40
2018-12-02T09:27:04.033Z,76.76
2018-12-02T09:31:07.537Z,76.84
2018-12-02T09:35:11.311Z,76.71
2018-12-02T09:39:18.368Z,76.78
2018-12-02T09:43:18.474Z,76.62
2018-12-02T09:47:22.012Z,77.00
2018-12-02T09:51:25.501Z,76.74
2018-12-02T09:55:32.691Z,76.27
2018-12-02T09:59:36.209Z,76.75
2018-12-02T10:03:39.671Z,76.12
2018-12-02T10:07:43.599Z,76.49
2018-12-02T10:11:47.114Z,76.78
2018-12-02T10:15:50.798Z,76.61
2018-12-02T10:19:54.240Z,76.14
2018-12-02T10:23:57.687Z,76.12
2018-12-02T10:28:01.363Z,76.25
2018-12-02T10:32:04.818Z,76.36
2018-12-02T10:36:08.361Z,76.45
2018-12-02T10:40:13.832Z,76.10
2018-12-02T10:44:17.331Z,76.77
2018-12-02T10:48:20.776Z,76.32
2018-12-02T10:52:24.741Z,76.86
2018-12-02T10:56:28.257Z,76.51
2018-12-02T11:00:36.888Z,76.96
2018-12-02T11:04:40.483Z,76.42
2018-12-02T11:08:44.011Z,76.97
2018-12-02T11:12:47.473Z,76.34
2018-12-02T11:16:50.962Z,76.37
2018-12-02T11:20:54.440Z,77.04
2018-12-02T11:24:58.119Z,77.18
2018-12-02T11:29:02.880Z,77.34
2018-12-02T11:33:06.675Z,76.69
2018-12-02T11:37:10.246Z,77.20
2018-12-02T11:41:13.751Z,77.29
2018-12-02T11:45:17.284Z,76.50
2018-12-02T11:49:20.755Z,76.89
2018-12-02T11:53:24.286Z,76.89
2018-12-02T11:57:27.812Z,77.16
2018-12-02T12:01:31.309Z,76.97
2018-12-02T12:05:35.089Z,77.27
2018-12-02T12:09:38.799Z,76.62
2018-12-02T12:13:42.988Z,77.26
2018-12-02T12:17:48.992Z,76.81
2018-12-02T12:21:52.725Z,77.24
2018-12-02T12:25:56.275Z,77.51
2018-12-02T12:29:59.736Z,77.04
2018-12-02T12:34:03.208Z,77.07
2018-12-02T12:38:07.331Z,77.40
2018-12-02T12:42:10.800Z,76.92
2018-12-02T12:46:14.278Z,77.17
2018-12-02T12:50:17.816Z,77.59
2018-12-02T12:54:21.286Z,77.14
2018-12-02T12:58:24.793Z,77.81
2018-12-02T13:02:28.308Z,77.51
2018-12-02T13:06:31.802Z,77.73
2018-12-02T13:10:35.213Z,77.71
2018-12-02T13:14:39.040Z,77.10
2018-12-02T13:18:42.535Z,77.73
2018-12-02T13:22:46.995Z,77.99
2018-12-02T13:26:50.517Z,77.98
2018-12-02T13:30:53.951Z,78.28
2018-12-02T13:34:57.454Z,78.17
2018-12-02T13:39:01.374Z,77.77
2018-12-02T13:43:15.856Z,77.25
2018-12-02T13:47:19.345Z,77.36
2018-12-02T13:51:22.883Z,78.06
2018-12-02T13:55:28.907Z,77.39
2018-12-02T13:59:32.368Z,77.45
2018-12-02T14:03:35.949Z,77.78
2018-12-02T14:07:39.489Z,78.16
2018-12-02T14:11:42.972Z,77.65
2018-12-02T14:15:52.036Z,77.34
2018-12-02T14:19:55.575Z,77.78
2018-12-02T14:23:59.027Z,78.29
2018-12-02T14:28:02.512Z,78.22
2018-12-02T14:36:09.695Z,78.09
2018-12-02T14:40:14.498Z,78.34
2018-12-02T14:44:18.052Z,78.45
2018-12-02T14:48:21.560Z,78.26
2018-12-02T14:52:25.103Z,77.86
2018-12-02T14:56:28.733Z,77.95
2018-12-02T15:00:32.235Z,78.14
2018-12-02T15:04:36.006Z,78.40
2018-12-02T15:08:39.775Z,78.67
2018-12-02T15:12:43.791Z,78.80
2018-12-02T15:16:47.232Z,78.80
2018-12-02T15:20:51.116Z,79.00
2018-12-02T15:24:54.567Z,78.66
2018-12-02T15:28:58.068Z,79.23
2018-12-02T15:33:01.567Z,78.94
2018-12-02T15:37:05.412Z,78.99
2018-12-02T15:41:08.946Z,79.36
2018-12-02T15:45:13.466Z,78.78
2018-12-02T15:49:16.981Z,79.02
2018-12-02T15:53:20.477Z,79.22
2018-12-02T15:57:23.968Z,79.68
2018-12-02T16:01:27.443Z,79.33
2018-12-02T16:05:30.951Z,79.36
2018-12-02T16:09:34.406Z,78.90
2018-12-02T16:13:37.937Z,79.06
2018-12-02T16:17:41.498Z,79.68
2018-12-02T16:21:45.053Z,79.37
2018-12-02T16:25:48.507Z,79.16
2018-12-02T16:29:51.926Z,78.93
2018-12-02T16:33:55.438Z,79.21
2018-12-02T16:37:58.882Z,78.41
2018-12-02T16:42:03.448Z,78.59
2018-12-02T16:46:07.012Z,78.47
2018-12-02T16:50:18.959Z,78.60
2018-12-02T16:54:22.540Z,78.70
2018-12-02T16:59:30.384Z,78.92
2018-12-02T17:03:33.908Z,78.39
2018-12-02T17:07:37.415Z,78.38
2018-12-02T17:11:41.780Z,79.42
2018-12-02T17:15:45.244Z,79.01
2018-12-02T17:19:48.709Z,78.65
2018-12-02T17:23:53.930Z,78.93
2018-12-02T17:27:57.456Z,78.41
2018-12-02T17:32:08.779Z,78.47
2018-12-02T17:36:12.215Z,78.56
2018-12-02T17:40:19.900Z,78.59
2018-12-02T17:44:23.373Z,79.19
2018-12-02T17:48:27.902Z,79.16
2018-12-02T17:52:31.332Z,79.13
2018-12-02T17:56:34.791Z,79.30
2018-12-02T18:00:38.347Z,78.64
2018-12-02T18:04:41.856Z,79.45
2018-12-02T18:08:45.568Z,79.12
2018-12-02T18:12:49.119Z,79.28
2018-12-02T18:16:52.800Z,79.49
2018-12-02T18:20:56.835Z,80.03
2018-12-02T18:25:03.485Z,81.60
2018-12-02T18:29:07.154Z,81.53
2018-12-02T18:33:10.853Z,79.67
2018-12-02T18:37:15.169Z,79.00
2018-12-02T18:41:21.772Z,79.70
2018-12-02T18:45:25.866Z,79.30
2018-12-02T18:49:30.195Z,79.51
2018-12-02T18:53:34.691Z,79.44
2018-12-02T18:57:38.396Z,79.75
2018-12-02T19:01:42.027Z,79.96
2018-12-02T19:05:46.057Z,79.41
2018-12-02T19:09:49.622Z,79.44
2018-12-02T19:13:53.334Z,79.37
2018-12-02T19:17:57.017Z,79.38
2018-12-02T19:22:01.001Z,79.48
2018-12-02T19:26:05.128Z,79.40
2018-12-02T19:38:48.054Z,79.77
2018-12-02T19:42:51.734Z,79.65
2018-12-02T19:46:55.490Z,79.31
2018-12-02T19:50:59.898Z,80.12
2018-12-02T19:55:03.910Z,80.24
2018-12-02T19:59:07.624Z,80.34
2018-12-02T20:03:13.241Z,80.28
2018-12-02T20:07:17.239Z,80.40
2018-12-02T20:11:21.088Z,80.29
2018-12-02T20:15:25.363Z,80.03
2018-12-02T20:19:34.805Z,79.81
2018-12-02T20:23:43.624Z,80.23
2018-12-02T20:27:47.534Z,79.90
2018-12-02T20:31:51.181Z,80.00
2018-12-02T20:35:55.973Z,80.31
2018-12-02T20:39:59.722Z,79.99
2018-12-02T20:44:03.388Z,79.77
2018-12-02T20:48:07.211Z,80.59
2018-12-02T20:52:11.724Z,80.40
2018-12-02T20:56:15.234Z,80.52
2018-12-02T21:00:19.737Z,80.67
2018-12-02T21:04:23.469Z,80.31
2018-12-02T21:08:27.170Z,80.44
2018-12-02T21:12:31.148Z,80.51
2018-12-02T21:16:34.717Z,80.08
2018-12-02T21:20:38.630Z,80.85
2018-12-02T21:24:42.159Z,80.53
2018-12-02T21:28:45.699Z,80.36
2018-12-02T21:32:49.227Z,80.54
2018-12-02T21:36:52.759Z,80.53
2018-12-02T21:40:56.320Z,80.24
2018-12-02T21:44:59.905Z,80.18
2018-12-02T21:49:03.466Z,80.91
2018-12-02T21:53:07.015Z,80.19
2018-12-02T21:57:10.555Z,80.63
2018-12-02T22:01:14.135Z,80.69
2018-12-02T22:05:17.698Z,80.41
2018-12-02T22:09:21.197Z,80.11
2018-12-02T22:13:24.757Z,80.46
2018-12-02T22:17:28.407Z,80.39
2018-12-02T22:21:31.865Z,80.65
2018-12-02T22:25:35.526Z,80.53
2018-12-02T22:29:39.158Z,80.75
2018-12-02T22:33:42.825Z,80.12
2018-12-02T22:37:47.337Z,80.22
2018-12-02T22:41:52.715Z,80.68
2018-12-02T22:45:56.233Z,80.88
2018-12-02T22:49:59.876Z,80.55
2018-12-02T22:54:03.462Z,80.55
2018-12-02T22:58:07.944Z,80.77
2018-12-02T23:02:16.827Z,80.14
2018-12-02T23:06:20.427Z,80.22
2018-12-02T23:10:24.058Z,80.53
2018-12-02T23:14:27.657Z,80.40
2018-12-02T23:18:31.261Z,80.69
2018-12-02T23:22:34.967Z,80.56
2018-12-02T23:26:39.697Z,80.15
2018-12-02T23:30:45.642Z,80.41
2018-12-02T23:34:53.315Z,80.83
2018-12-02T23:38:56.907Z,80.68
2018-12-02T23:43:00.713Z,80.38
2018-12-02T23:47:04.281Z,80.71
2018-12-02T23:51:08.512Z,80.87
2018-12-02T23:55:16.958Z,81.10
2018-12-02T23:59:21.059Z,80.82
